sensor_id;sensor_type;location;lat;lon;timestamp;pressure;altitude;pressure_sealevel;temperature;humidity
39363;BME280;25088;43.238;23.110;2023-02-22T00:00:36;96476.31;;;9.67;43.33
39363;BME280;25088;43.238;23.110;2023-02-22T00:03:21;96469.13;;;9.61;43.69
39363;BME280;25088;43.238;23.110;2023-02-22T00:05:55;96466.56;;;9.54;43.50
39363;BME280;25088;43.238;23.110;2023-02-22T00:08:24;96461.16;;;9.37;44.23
39363;BME280;25088;43.238;23.110;2023-02-22T00:10:54;96471.31;;;9.42;44.47
39363;BME280;25088;43.238;23.110;2023-02-22T00:13:20;96468.69;;;9.30;43.83
39363;BME280;25088;43.238;23.110;2023-02-22T00:15:47;96454.47;;;9.28;44.42
39363;BME280;25088;43.238;23.110;2023-02-22T00:18:15;96453.25;;;9.19;44.54
39363;BME280;25088;43.238;23.110;2023-02-22T00:20:41;96458.31;;;9.10;45.36
39363;BME280;25088;43.238;23.110;2023-02-22T00:23:12;96462.34;;;9.07;46.03
39363;BME280;25088;43.238;23.110;2023-02-22T00:25:38;96469.16;;;8.76;47.73
39363;BME280;25088;43.238;23.110;2023-02-22T00:28:04;96462.09;;;8.47;48.21
39363;BME280;25088;43.238;23.110;2023-02-22T00:30:30;96465.81;;;8.41;48.26
39363;BME280;25088;43.238;23.110;2023-02-22T00:32:56;96460.69;;;8.44;48.18
39363;BME280;25088;43.238;23.110;2023-02-22T00:35:24;96460.13;;;8.42;48.86
39363;BME280;25088;43.238;23.110;2023-02-22T00:37:51;96439.69;;;8.28;48.96
39363;BME280;25088;43.238;23.110;2023-02-22T00:40:20;96457.75;;;8.34;49.02
39363;BME280;25088;43.238;23.110;2023-02-22T00:42:46;96438.72;;;8.06;49.29
39363;BME280;25088;43.238;23.110;2023-02-22T00:45:14;96449.75;;;8.27;48.40
39363;BME280;25088;43.238;23.110;2023-02-22T00:47:40;96460.59;;;8.39;48.59
39363;BME280;25088;43.238;23.110;2023-02-22T00:50:05;96442.16;;;8.29;48.32
39363;BME280;25088;43.238;23.110;2023-02-22T00:52:31;96457.66;;;8.41;48.24
39363;BME280;25088;43.238;23.110;2023-02-22T00:54:57;96447.25;;;8.38;48.45
39363;BME280;25088;43.238;23.110;2023-02-22T00:57:23;96457.88;;;8.39;48.54
39363;BME280;25088;43.238;23.110;2023-02-22T00:59:49;96451.38;;;8.28;49.72
39363;BME280;25088;43.238;23.110;2023-02-22T01:02:14;96446.09;;;8.22;48.69
39363;BME280;25088;43.238;23.110;2023-02-22T01:04:40;96436.41;;;8.26;48.93
39363;BME280;25088;43.238;23.110;2023-02-22T01:07:06;96448.94;;;8.15;50.16
39363;BME280;25088;43.238;23.110;2023-02-22T01:09:31;96458.19;;;8.14;50.36
39363;BME280;25088;43.238;23.110;2023-02-22T01:11:57;96448.84;;;8.10;49.85
39363;BME280;25088;43.238;23.110;2023-02-22T01:14:24;96454.78;;;8.07;49.78
39363;BME280;25088;43.238;23.110;2023-02-22T01:16:54;96455.97;;;8.11;49.50
39363;BME280;25088;43.238;23.110;2023-02-22T01:19:21;96447.41;;;8.19;49.17
39363;BME280;25088;43.238;23.110;2023-02-22T01:21:48;96446.81;;;8.17;49.21
39363;BME280;25088;43.238;23.110;2023-02-22T01:24:14;96456.97;;;8.22;48.56
39363;BME280;25088;43.238;23.110;2023-02-22T01:26:48;96454.84;;;8.24;48.29
39363;BME280;25088;43.238;23.110;2023-02-22T01:29:16;96456.72;;;8.23;49.56
39363;BME280;25088;43.238;23.110;2023-02-22T01:31:42;96449.47;;;8.00;50.00
39363;BME280;25088;43.238;23.110;2023-02-22T01:34:10;96457.19;;;7.92;50.47
39363;BME280;25088;43.238;23.110;2023-02-22T01:36:37;96456.75;;;7.83;50.65
39363;BME280;25088;43.238;23.110;2023-02-22T01:39:04;96461.56;;;7.93;49.77
39363;BME280;25088;43.238;23.110;2023-02-22T01:41:31;96462.13;;;7.95;51.27
39363;BME280;25088;43.238;23.110;2023-02-22T01:43:56;96457.22;;;7.80;51.66
39363;BME280;25088;43.238;23.110;2023-02-22T01:46:24;96454.38;;;7.75;51.33
39363;BME280;25088;43.238;23.110;2023-02-22T01:48:57;96461.81;;;7.80;51.20
39363;BME280;25088;43.238;23.110;2023-02-22T01:51:28;96464.44;;;7.74;51.86
39363;BME280;25088;43.238;23.110;2023-02-22T01:54:04;96463.13;;;7.65;52.06
39363;BME280;25088;43.238;23.110;2023-02-22T01:56:33;96457.59;;;7.60;52.14
39363;BME280;25088;43.238;23.110;2023-02-22T01:59:03;96459.50;;;7.60;51.63
39363;BME280;25088;43.238;23.110;2023-02-22T02:01:31;96446.41;;;7.57;52.54
39363;BME280;25088;43.238;23.110;2023-02-22T02:03:59;96452.66;;;7.45;53.11
39363;BME280;25088;43.238;23.110;2023-02-22T02:06:27;96445.22;;;7.41;53.23
39363;BME280;25088;43.238;23.110;2023-02-22T02:09:25;96460.09;;;7.50;52.89
39363;BME280;25088;43.238;23.110;2023-02-22T02:11:55;96445.94;;;7.48;52.88
39363;BME280;25088;43.238;23.110;2023-02-22T02:14:24;96433.44;;;7.47;52.03
39363;BME280;25088;43.238;23.110;2023-02-22T02:16:51;96443.44;;;7.58;52.10
39363;BME280;25088;43.238;23.110;2023-02-22T02:30:46;96433.78;;;7.27;53.72
39363;BME280;25088;43.238;23.110;2023-02-22T02:33:30;96438.97;;;7.40;52.94
39363;BME280;25088;43.238;23.110;2023-02-22T02:38:42;96437.22;;;7.46;53.23
39363;BME280;25088;43.238;23.110;2023-02-22T02:41:29;96435.66;;;7.50;52.92
39363;BME280;25088;43.238;23.110;2023-02-22T02:44:10;96433.75;;;7.62;52.38
39363;BME280;25088;43.238;23.110;2023-02-22T02:46:46;96435.03;;;7.71;51.17
39363;BME280;25088;43.238;23.110;2023-02-22T02:49:18;96439.34;;;7.84;51.20
39363;BME280;25088;43.238;23.110;2023-02-22T02:51:49;96436.53;;;7.91;51.07
39363;BME280;25088;43.238;23.110;2023-02-22T02:54:18;96430.50;;;7.89;50.92
39363;BME280;25088;43.238;23.110;2023-02-22T02:56:44;96434.66;;;7.80;52.15
39363;BME280;25088;43.238;23.110;2023-02-22T02:59:42;96425.47;;;7.69;52.41
39363;BME280;25088;43.238;23.110;2023-02-22T03:02:36;96430.22;;;7.62;52.24
39363;BME280;25088;43.238;23.110;2023-02-22T03:05:14;96423.97;;;7.61;52.26
39363;BME280;25088;43.238;23.110;2023-02-22T03:07:50;96425.34;;;7.64;52.14
39363;BME280;25088;43.238;23.110;2023-02-22T03:15:49;96425.78;;;7.84;51.30
39363;BME280;25088;43.238;23.110;2023-02-22T03:18:23;96431.19;;;7.96;50.62
39363;BME280;25088;43.238;23.110;2023-02-22T03:23:45;96424.06;;;7.95;51.93
39363;BME280;25088;43.238;23.110;2023-02-22T03:26:20;96423.59;;;7.98;51.65
39363;BME280;25088;43.238;23.110;2023-02-22T03:28:50;96425.25;;;7.99;51.31
39363;BME280;25088;43.238;23.110;2023-02-22T03:31:22;96420.16;;;8.02;51.29
39363;BME280;25088;43.238;23.110;2023-02-22T03:33:59;96426.97;;;8.17;51.68
39363;BME280;25088;43.238;23.110;2023-02-22T03:36:33;96426.00;;;8.23;50.51
39363;BME280;25088;43.238;23.110;2023-02-22T03:39:00;96425.84;;;8.29;51.01
39363;BME280;25088;43.238;23.110;2023-02-22T03:41:30;96428.03;;;8.44;50.28
39363;BME280;25088;43.238;23.110;2023-02-22T03:44:12;96429.56;;;8.52;50.56
39363;BME280;25088;43.238;23.110;2023-02-22T03:46:39;96433.66;;;8.54;50.69
39363;BME280;25088;43.238;23.110;2023-02-22T03:49:22;96438.00;;;8.39;51.34
39363;BME280;25088;43.238;23.110;2023-02-22T03:51:49;96438.69;;;8.46;50.83
39363;BME280;25088;43.238;23.110;2023-02-22T03:54:15;96433.03;;;8.36;50.69
39363;BME280;25088;43.238;23.110;2023-02-22T03:56:54;96431.94;;;8.48;50.74
39363;BME280;25088;43.238;23.110;2023-02-22T03:59:22;96441.31;;;8.41;51.19
39363;BME280;25088;43.238;23.110;2023-02-22T04:01:52;96424.69;;;8.25;51.50
39363;BME280;25088;43.238;23.110;2023-02-22T04:04:18;96447.25;;;8.38;51.05
39363;BME280;25088;43.238;23.110;2023-02-22T04:06:45;96443.31;;;8.34;51.41
39363;BME280;25088;43.238;23.110;2023-02-22T04:09:12;96447.59;;;8.29;51.31
39363;BME280;25088;43.238;23.110;2023-02-22T04:11:38;96447.50;;;8.24;52.59
39363;BME280;25088;43.238;23.110;2023-02-22T04:14:03;96450.16;;;8.08;52.98
39363;BME280;25088;43.238;23.110;2023-02-22T04:16:29;96445.00;;;7.94;54.35
39363;BME280;25088;43.238;23.110;2023-02-22T04:18:55;96445.19;;;7.76;54.56
39363;BME280;25088;43.238;23.110;2023-02-22T04:21:20;96458.28;;;7.79;55.03
39363;BME280;25088;43.238;23.110;2023-02-22T04:23:46;96460.44;;;7.54;56.56
39363;BME280;25088;43.238;23.110;2023-02-22T04:26:12;96457.03;;;7.35;56.50
39363;BME280;25088;43.238;23.110;2023-02-22T04:28:37;96453.84;;;7.38;55.84
39363;BME280;25088;43.238;23.110;2023-02-22T04:31:03;96464.84;;;7.43;55.56
39363;BME280;25088;43.238;23.110;2023-02-22T04:33:28;96466.59;;;7.49;54.88
39363;BME280;25088;43.238;23.110;2023-02-22T04:35:54;96457.72;;;7.54;55.09
39363;BME280;25088;43.238;23.110;2023-02-22T04:38:22;96472.84;;;7.49;55.85
39363;BME280;25088;43.238;23.110;2023-02-22T04:40:50;96460.00;;;7.33;55.90
39363;BME280;25088;43.238;23.110;2023-02-22T04:43:15;96471.56;;;7.40;56.07
39363;BME280;25088;43.238;23.110;2023-02-22T04:45:41;96473.69;;;7.50;55.45
39363;BME280;25088;43.238;23.110;2023-02-22T04:48:06;96468.59;;;7.54;55.54
39363;BME280;25088;43.238;23.110;2023-02-22T04:50:32;96479.09;;;7.50;55.32
39363;BME280;25088;43.238;23.110;2023-02-22T04:52:58;96469.53;;;7.59;53.74
39363;BME280;25088;43.238;23.110;2023-02-22T04:55:23;96471.41;;;7.82;52.57
39363;BME280;25088;43.238;23.110;2023-02-22T04:57:48;96478.31;;;8.01;51.82
39363;BME280;25088;43.238;23.110;2023-02-22T05:00:16;96468.38;;;8.07;51.74
39363;BME280;25088;43.238;23.110;2023-02-22T05:02:42;96476.53;;;8.07;51.99
39363;BME280;25088;43.238;23.110;2023-02-22T05:05:07;96464.38;;;7.98;53.47
39363;BME280;25088;43.238;23.110;2023-02-22T05:07:33;96452.56;;;7.52;55.01
39363;BME280;25088;43.238;23.110;2023-02-22T05:09:58;96477.22;;;7.50;55.56
39363;BME280;25088;43.238;23.110;2023-02-22T05:12:27;96477.59;;;7.42;55.45
39363;BME280;25088;43.238;23.110;2023-02-22T05:14:52;96474.06;;;7.42;55.82
39363;BME280;25088;43.238;23.110;2023-02-22T05:17:18;96477.59;;;7.42;55.46
39363;BME280;25088;43.238;23.110;2023-02-22T05:19:43;96465.69;;;7.32;55.88
39363;BME280;25088;43.238;23.110;2023-02-22T05:22:09;96480.06;;;7.32;56.22
39363;BME280;25088;43.238;23.110;2023-02-22T05:24:34;96498.03;;;7.21;57.07
39363;BME280;25088;43.238;23.110;2023-02-22T05:27:00;96493.19;;;7.12;57.32
39363;BME280;25088;43.238;23.110;2023-02-22T05:29:25;96466.00;;;7.00;57.03
39363;BME280;25088;43.238;23.110;2023-02-22T05:31:51;96492.72;;;7.27;56.09
39363;BME280;25088;43.238;23.110;2023-02-22T05:34:16;96498.25;;;7.32;56.82
39363;BME280;25088;43.238;23.110;2023-02-22T05:36:42;96499.31;;;7.19;57.68
39363;BME280;25088;43.238;23.110;2023-02-22T05:39:07;96494.69;;;7.19;57.05
39363;BME280;25088;43.238;23.110;2023-02-22T05:41:33;96503.69;;;7.32;56.95
39363;BME280;25088;43.238;23.110;2023-02-22T05:43:58;96489.88;;;7.21;57.42
39363;BME280;25088;43.238;23.110;2023-02-22T05:46:24;96502.75;;;7.26;57.80
39363;BME280;25088;43.238;23.110;2023-02-22T05:48:49;96513.00;;;7.24;57.80
39363;BME280;25088;43.238;23.110;2023-02-22T05:51:15;96513.47;;;7.21;58.08
39363;BME280;25088;43.238;23.110;2023-02-22T05:53:40;96503.78;;;7.25;57.67
39363;BME280;25088;43.238;23.110;2023-02-22T05:56:06;96512.53;;;7.74;56.63
39363;BME280;25088;43.238;23.110;2023-02-22T05:58:32;96513.09;;;8.40;53.71
39363;BME280;25088;43.238;23.110;2023-02-22T06:00:57;96515.19;;;8.95;51.97
39363;BME280;25088;43.238;23.110;2023-02-22T06:03:24;96495.84;;;9.42;50.37
39363;BME280;25088;43.238;23.110;2023-02-22T06:05:49;96510.47;;;9.74;49.45
39363;BME280;25088;43.238;23.110;2023-02-22T06:08:15;96518.66;;;10.13;48.52
39363;BME280;25088;43.238;23.110;2023-02-22T06:10:42;96513.25;;;10.35;48.04
39363;BME280;25088;43.238;23.110;2023-02-22T06:13:08;96527.34;;;10.76;46.70
39363;BME280;25088;43.238;23.110;2023-02-22T06:15:34;96523.97;;;11.23;45.96
39363;BME280;25088;43.238;23.110;2023-02-22T06:18:00;96530.91;;;11.73;44.96
39363;BME280;25088;43.238;23.110;2023-02-22T06:20:27;96525.63;;;11.98;44.36
39363;BME280;25088;43.238;23.110;2023-02-22T06:22:55;96518.06;;;12.10;43.99
39363;BME280;25088;43.238;23.110;2023-02-22T06:25:24;96528.41;;;12.66;43.61
39363;BME280;25088;43.238;23.110;2023-02-22T06:27:50;96527.72;;;13.11;43.46
39363;BME280;25088;43.238;23.110;2023-02-22T06:30:17;96526.94;;;13.52;42.19
39363;BME280;25088;43.238;23.110;2023-02-22T06:32:43;96529.69;;;13.92;40.90
39363;BME280;25088;43.238;23.110;2023-02-22T06:35:09;96527.09;;;14.27;39.86
39363;BME280;25088;43.238;23.110;2023-02-22T06:37:35;96527.38;;;14.30;40.87
39363;BME280;25088;43.238;23.110;2023-02-22T06:40:01;96525.38;;;14.46;39.51
39363;BME280;25088;43.238;23.110;2023-02-22T06:42:27;96530.91;;;14.51;40.85
39363;BME280;25088;43.238;23.110;2023-02-22T06:44:52;96524.66;;;14.95;39.88
39363;BME280;25088;43.238;23.110;2023-02-22T06:47:18;96530.69;;;14.97;39.28
39363;BME280;25088;43.238;23.110;2023-02-22T06:49:43;96532.94;;;15.34;39.24
39363;BME280;25088;43.238;23.110;2023-02-22T06:52:09;96528.16;;;15.45;38.87
39363;BME280;25088;43.238;23.110;2023-02-22T06:54:36;96528.81;;;16.00;37.89
39363;BME280;25088;43.238;23.110;2023-02-22T06:57:01;96516.47;;;15.97;37.52
39363;BME280;25088;43.238;23.110;2023-02-22T06:59:27;96515.25;;;16.33;37.26
39363;BME280;25088;43.238;23.110;2023-02-22T07:01:53;96511.22;;;16.49;37.59
39363;BME280;25088;43.238;23.110;2023-02-22T07:04:19;96512.88;;;16.93;36.24
39363;BME280;25088;43.238;23.110;2023-02-22T07:06:48;96519.38;;;17.40;34.97
39363;BME280;25088;43.238;23.110;2023-02-22T07:09:14;96514.47;;;17.69;34.78
39363;BME280;25088;43.238;23.110;2023-02-22T07:11:41;96510.94;;;18.01;33.86
39363;BME280;25088;43.238;23.110;2023-02-22T07:14:06;96508.03;;;18.80;33.70
39363;BME280;25088;43.238;23.110;2023-02-22T07:16:32;96504.75;;;19.28;32.89
39363;BME280;25088;43.238;23.110;2023-02-22T07:18:58;96502.84;;;19.74;32.11
39363;BME280;25088;43.238;23.110;2023-02-22T07:21:25;96507.63;;;20.04;31.30
39363;BME280;25088;43.238;23.110;2023-02-22T07:23:52;96505.41;;;20.15;31.05
39363;BME280;25088;43.238;23.110;2023-02-22T07:26:18;96503.91;;;20.09;30.55
39363;BME280;25088;43.238;23.110;2023-02-22T07:28:43;96492.59;;;20.68;30.03
39363;BME280;25088;43.238;23.110;2023-02-22T07:31:09;96491.19;;;20.79;30.13
39363;BME280;25088;43.238;23.110;2023-02-22T07:33:35;96488.84;;;21.38;29.37
39363;BME280;25088;43.238;23.110;2023-02-22T07:36:00;96494.72;;;21.62;29.70
39363;BME280;25088;43.238;23.110;2023-02-22T07:38:26;96490.09;;;22.01;29.86
39363;BME280;25088;43.238;23.110;2023-02-22T07:40:51;96486.19;;;22.58;28.02
39363;BME280;25088;43.238;23.110;2023-02-22T07:43:21;96483.13;;;22.89;28.47
39363;BME280;25088;43.238;23.110;2023-02-22T07:45:48;96487.84;;;23.18;27.55
39363;BME280;25088;43.238;23.110;2023-02-22T07:48:14;96490.34;;;23.32;27.44
39363;BME280;25088;43.238;23.110;2023-02-22T07:50:40;96489.88;;;23.30;27.29
39363;BME280;25088;43.238;23.110;2023-02-22T07:53:14;96490.44;;;23.44;27.55
39363;BME280;25088;43.238;23.110;2023-02-22T07:55:40;96481.53;;;23.51;27.01
39363;BME280;25088;43.238;23.110;2023-02-22T07:58:07;96486.50;;;23.66;27.09
39363;BME280;25088;43.238;23.110;2023-02-22T08:00:35;96485.41;;;23.79;27.11
39363;BME280;25088;43.238;23.110;2023-02-22T08:03:03;96487.09;;;23.71;26.98
39363;BME280;25088;43.238;23.110;2023-02-22T08:05:30;96496.16;;;23.68;27.07
39363;BME280;25088;43.238;23.110;2023-02-22T08:07:56;96488.50;;;23.98;26.82
39363;BME280;25088;43.238;23.110;2023-02-22T08:10:23;96486.38;;;24.29;26.78
39363;BME280;25088;43.238;23.110;2023-02-22T08:12:50;96476.81;;;24.63;26.27
39363;BME280;25088;43.238;23.110;2023-02-22T08:17:49;96482.41;;;24.63;25.79
39363;BME280;25088;43.238;23.110;2023-02-22T08:20:15;96471.50;;;25.07;25.84
39363;BME280;25088;43.238;23.110;2023-02-22T08:22:44;96484.50;;;25.15;25.52
39363;BME280;25088;43.238;23.110;2023-02-22T08:25:11;96474.09;;;25.40;25.47
39363;BME280;25088;43.238;23.110;2023-02-22T08:27:37;96469.41;;;25.56;25.15
39363;BME280;25088;43.238;23.110;2023-02-22T08:30:03;96466.03;;;25.91;24.36
39363;BME280;25088;43.238;23.110;2023-02-22T08:32:29;96467.47;;;25.72;24.73
39363;BME280;25088;43.238;23.110;2023-02-22T08:34:54;96465.63;;;25.64;24.53
39363;BME280;25088;43.238;23.110;2023-02-22T08:37:20;96459.66;;;26.06;23.73
39363;BME280;25088;43.238;23.110;2023-02-22T08:39:45;96461.84;;;26.28;23.74
39363;BME280;25088;43.238;23.110;2023-02-22T08:42:11;96454.78;;;26.63;23.13
39363;BME280;25088;43.238;23.110;2023-02-22T08:44:37;96451.97;;;26.63;23.25
39363;BME280;25088;43.238;23.110;2023-02-22T08:47:03;96448.44;;;26.50;23.67
39363;BME280;25088;43.238;23.110;2023-02-22T08:49:29;96447.78;;;25.69;24.07
39363;BME280;25088;43.238;23.110;2023-02-22T08:51:54;96449.19;;;25.75;24.05
39363;BME280;25088;43.238;23.110;2023-02-22T08:54:20;96446.69;;;25.86;24.12
39363;BME280;25088;43.238;23.110;2023-02-22T08:56:47;96440.16;;;26.10;24.30
39363;BME280;25088;43.238;23.110;2023-02-22T08:59:13;96441.09;;;26.29;23.89
39363;BME280;25088;43.238;23.110;2023-02-22T09:01:38;96440.19;;;25.82;23.78
39363;BME280;25088;43.238;23.110;2023-02-22T09:04:04;96442.03;;;26.06;23.67
39363;BME280;25088;43.238;23.110;2023-02-22T09:06:29;96450.16;;;26.70;23.03
39363;BME280;25088;43.238;23.110;2023-02-22T09:08:55;96433.44;;;26.58;23.65
39363;BME280;25088;43.238;23.110;2023-02-22T09:11:20;96437.41;;;26.41;23.46
39363;BME280;25088;43.238;23.110;2023-02-22T09:13:46;96434.34;;;26.62;23.57
39363;BME280;25088;43.238;23.110;2023-02-22T09:16:12;96434.56;;;27.20;23.80
39363;BME280;25088;43.238;23.110;2023-02-22T09:18:37;96425.91;;;26.94;23.03
39363;BME280;25088;43.238;23.110;2023-02-22T09:21:04;96427.50;;;27.26;22.61
39363;BME280;25088;43.238;23.110;2023-02-22T09:23:29;96414.28;;;27.27;22.62
39363;BME280;25088;43.238;23.110;2023-02-22T09:25:55;96425.97;;;27.13;22.39
39363;BME280;25088;43.238;23.110;2023-02-22T09:28:20;96428.19;;;27.97;22.90
39363;BME280;25088;43.238;23.110;2023-02-22T09:30:46;96415.03;;;27.63;22.96
39363;BME280;25088;43.238;23.110;2023-02-22T09:33:15;96426.44;;;27.35;22.78
39363;BME280;25088;43.238;23.110;2023-02-22T09:35:42;96435.59;;;27.86;22.58
39363;BME280;25088;43.238;23.110;2023-02-22T09:38:12;96420.34;;;28.06;21.84
39363;BME280;25088;43.238;23.110;2023-02-22T09:40:45;96410.63;;;27.62;22.39
39363;BME280;25088;43.238;23.110;2023-02-22T09:46:02;96413.94;;;28.29;21.99
39363;BME280;25088;43.238;23.110;2023-02-22T09:48:24;96408.13;;;28.18;22.44
39363;BME280;25088;43.238;23.110;2023-02-22T09:50:52;96408.84;;;28.57;22.25
39363;BME280;25088;43.238;23.110;2023-02-22T09:53:23;96410.47;;;28.58;21.92
39363;BME280;25088;43.238;23.110;2023-02-22T09:55:58;96411.09;;;28.48;21.62
39363;BME280;25088;43.238;23.110;2023-02-22T09:58:30;96400.13;;;28.40;22.15
39363;BME280;25088;43.238;23.110;2023-02-22T10:01:49;96407.28;;;28.60;21.94
39363;BME280;25088;43.238;23.110;2023-02-22T10:06:36;96395.13;;;29.02;21.07
39363;BME280;25088;43.238;23.110;2023-02-22T10:09:04;96390.25;;;28.99;21.78
39363;BME280;25088;43.238;23.110;2023-02-22T10:11:43;96392.19;;;29.51;21.06
39363;BME280;25088;43.238;23.110;2023-02-22T10:17:19;96391.34;;;28.68;20.95
39363;BME280;25088;43.238;23.110;2023-02-22T10:20:17;96379.91;;;28.80;21.33
39363;BME280;25088;43.238;23.110;2023-02-22T10:27:41;96372.06;;;29.83;20.72
39363;BME280;25088;43.238;23.110;2023-02-22T10:30:29;96365.34;;;29.57;20.85
39363;BME280;25088;43.238;23.110;2023-02-22T10:33:19;96357.56;;;29.47;20.75
39363;BME280;25088;43.238;23.110;2023-02-22T10:35:45;96359.50;;;29.40;20.55
39363;BME280;25088;43.238;23.110;2023-02-22T10:38:32;96347.06;;;29.74;20.81
39363;BME280;25088;43.238;23.110;2023-02-22T10:43:33;96346.78;;;29.19;20.44
39363;BME280;25088;43.238;23.110;2023-02-22T10:46:07;96328.13;;;29.71;19.90
39363;BME280;25088;43.238;23.110;2023-02-22T10:48:36;96335.19;;;29.92;19.84
39363;BME280;25088;43.238;23.110;2023-02-22T10:51:04;96330.88;;;30.01;19.91
39363;BME280;25088;43.238;23.110;2023-02-22T10:53:33;96325.09;;;30.24;19.69
39363;BME280;25088;43.238;23.110;2023-02-22T10:56:19;96314.38;;;30.00;20.29
39363;BME280;25088;43.238;23.110;2023-02-22T10:58:48;96319.91;;;29.93;19.95
39363;BME280;25088;43.238;23.110;2023-02-22T11:01:40;96319.00;;;30.22;19.07
39363;BME280;25088;43.238;23.110;2023-02-22T11:04:14;96312.53;;;30.18;19.56
39363;BME280;25088;43.238;23.110;2023-02-22T11:06:43;96304.53;;;30.20;19.69
39363;BME280;25088;43.238;23.110;2023-02-22T11:09:16;96307.97;;;30.06;20.11
39363;BME280;25088;43.238;23.110;2023-02-22T11:11:50;96295.53;;;30.07;20.15
39363;BME280;25088;43.238;23.110;2023-02-22T11:14:31;96299.59;;;30.10;19.75
39363;BME280;25088;43.238;23.110;2023-02-22T11:16:58;96295.63;;;29.74;19.96
39363;BME280;25088;43.238;23.110;2023-02-22T11:19:27;96296.75;;;30.10;19.84
39363;BME280;25088;43.238;23.110;2023-02-22T11:22:08;96288.69;;;30.05;19.90
39363;BME280;25088;43.238;23.110;2023-02-22T11:24:43;96288.53;;;29.91;19.80
39363;BME280;25088;43.238;23.110;2023-02-22T11:27:23;96289.50;;;30.57;19.81
39363;BME280;25088;43.238;23.110;2023-02-22T11:29:50;96290.09;;;30.25;19.79
39363;BME280;25088;43.238;23.110;2023-02-22T11:32:18;96296.13;;;30.27;19.82
39363;BME280;25088;43.238;23.110;2023-02-22T11:34:47;96286.09;;;30.30;19.70
39363;BME280;25088;43.238;23.110;2023-02-22T11:37:27;96279.88;;;30.61;19.54
39363;BME280;25088;43.238;23.110;2023-02-22T11:40:21;96279.66;;;30.29;19.99
39363;BME280;25088;43.238;23.110;2023-02-22T11:43:13;96276.56;;;30.01;20.42
39363;BME280;25088;43.238;23.110;2023-02-22T11:45:58;96269.25;;;30.37;20.90
39363;BME280;25088;43.238;23.110;2023-02-22T11:48:26;96264.84;;;30.40;21.53
39363;BME280;25088;43.238;23.110;2023-02-22T11:51:33;96274.03;;;29.88;21.31
39363;BME280;25088;43.238;23.110;2023-02-22T12:08:14;96255.09;;;28.51;22.76
39363;BME280;25088;43.238;23.110;2023-02-22T12:13:43;96242.31;;;29.17;22.89
39363;BME280;25088;43.238;23.110;2023-02-22T12:19:01;96238.84;;;30.64;21.88
39363;BME280;25088;43.238;23.110;2023-02-22T12:21:30;96246.22;;;28.49;23.21
39363;BME280;25088;43.238;23.110;2023-02-22T12:24:14;96243.88;;;29.11;22.84
39363;BME280;25088;43.238;23.110;2023-02-22T12:26:44;96235.81;;;29.47;22.14
39363;BME280;25088;43.238;23.110;2023-02-22T12:29:45;96217.38;;;29.49;22.11
39363;BME280;25088;43.238;23.110;2023-02-22T12:35:08;96233.81;;;29.47;23.24
39363;BME280;25088;43.238;23.110;2023-02-22T12:40:31;96226.53;;;29.05;23.30
39363;BME280;25088;43.238;23.110;2023-02-22T12:45:41;96217.91;;;28.61;23.92
39363;BME280;25088;43.238;23.110;2023-02-22T12:48:17;96227.78;;;28.25;23.92
39363;BME280;25088;43.238;23.110;2023-02-22T12:50:48;96236.44;;;27.67;24.22
39363;BME280;25088;43.238;23.110;2023-02-22T12:53:21;96220.44;;;28.40;24.24
39363;BME280;25088;43.238;23.110;2023-02-22T12:55:52;96232.81;;;28.12;24.17
39363;BME280;25088;43.238;23.110;2023-02-22T12:58:24;96226.13;;;28.20;24.38
39363;BME280;25088;43.238;23.110;2023-02-22T13:00:56;96222.56;;;28.50;24.22
39363;BME280;25088;43.238;23.110;2023-02-22T13:03:32;96220.50;;;28.47;24.18
39363;BME280;25088;43.238;23.110;2023-02-22T13:09:07;96212.56;;;28.82;23.92
39363;BME280;25088;43.238;23.110;2023-02-22T13:12:22;96218.91;;;28.76;23.96
39363;BME280;25088;43.238;23.110;2023-02-22T13:20:24;96233.03;;;28.00;25.02
39363;BME280;25088;43.238;23.110;2023-02-22T13:23:08;96236.97;;;27.72;25.35
39363;BME280;25088;43.238;23.110;2023-02-22T13:25:58;96226.16;;;27.74;25.15
39363;BME280;25088;43.238;23.110;2023-02-22T13:42:28;96229.75;;;26.71;26.30
39363;BME280;25088;43.238;23.110;2023-02-22T13:53:51;96230.97;;;25.71;27.33
39363;BME280;25088;43.238;23.110;2023-02-22T13:56:21;96231.19;;;26.29;27.02
39363;BME280;25088;43.238;23.110;2023-02-22T13:58:54;96235.16;;;26.44;26.68
39363;BME280;25088;43.238;23.110;2023-02-22T14:01:42;96242.63;;;26.40;27.05
39363;BME280;25088;43.238;23.110;2023-02-22T14:06:52;96237.81;;;25.58;27.48
39363;BME280;25088;43.238;23.110;2023-02-22T14:09:50;96236.22;;;25.57;27.61
39363;BME280;25088;43.238;23.110;2023-02-22T14:17:34;96248.69;;;23.98;29.50
39363;BME280;25088;43.238;23.110;2023-02-22T14:20:17;96251.63;;;23.44;30.53
39363;BME280;25088;43.238;23.110;2023-02-22T14:22:49;96243.13;;;23.74;30.40
39363;BME280;25088;43.238;23.110;2023-02-22T14:27:56;96252.88;;;23.80;30.42
39363;BME280;25088;43.238;23.110;2023-02-22T14:30:25;96249.84;;;23.85;30.11
39363;BME280;25088;43.238;23.110;2023-02-22T14:32:51;96253.09;;;23.17;30.73
39363;BME280;25088;43.238;23.110;2023-02-22T14:35:17;96262.97;;;23.27;30.63
39363;BME280;25088;43.238;23.110;2023-02-22T14:37:56;96257.06;;;23.29;30.75
39363;BME280;25088;43.238;23.110;2023-02-22T14:40:30;96246.94;;;23.69;30.54
39363;BME280;25088;43.238;23.110;2023-02-22T14:43:07;96254.16;;;23.83;30.27
39363;BME280;25088;43.238;23.110;2023-02-22T14:45:51;96252.63;;;23.85;30.39
39363;BME280;25088;43.238;23.110;2023-02-22T14:48:29;96262.88;;;23.36;30.92
39363;BME280;25088;43.238;23.110;2023-02-22T14:51:14;96252.31;;;22.75;31.38
39363;BME280;25088;43.238;23.110;2023-02-22T14:56:22;96260.69;;;21.65;32.95
39363;BME280;25088;43.238;23.110;2023-02-22T15:01:35;96266.94;;;20.81;34.60
39363;BME280;25088;43.238;23.110;2023-02-22T15:04:27;96269.50;;;20.25;35.06
39363;BME280;25088;43.238;23.110;2023-02-22T15:06:54;96257.59;;;20.16;35.37